Time;durP1;ratioP1;P1;durP2;ratioP2;P2;SDS_P1;SDS_P2;PMS_P1;PMS_P2;Temp;Humidity;BMP_temperature;BMP_pressure;BME280_temperature;BME280_humidity;BME280_pressure;Samples;Min_cycle;Max_cycle;Signal;HPM_P1;HPM_P2
2021/06/21 06:08:05;;;;;;;11.25;3.25;;;18.90;99.90;;;;;;1310167;23;21318;-94
2021/06/21 06:32:07;;;;;;;13.82;3.05;;;19.40;99.90;;;;;;1245210;23;21349;-94
2021/06/21 07:01:37;;;;;;;5.20;2.35;;;19.80;99.90;;;;;;3579867;23;20060;-90
2021/06/21 07:04:14;;;;;;;10.68;2.60;;;19.80;99.90;;;;;;1379945;23;20194;-92
2021/06/21 07:07:17;;;;;;;8.48;2.35;;;20.00;99.90;;;;;;3565966;23;20036;-89
2021/06/21 07:12:48;;;;;;;14.63;2.90;;;19.90;99.90;;;;;;3591966;23;20099;-96
2021/06/21 07:15:22;;;;;;;9.32;3.22;;;20.00;99.90;;;;;;1275069;23;20876;-85
2021/06/21 07:30:13;;;;;;;11.95;3.10;;;20.30;99.90;;;;;;1247484;23;21366;-89
2021/06/21 07:36:03;;;;;;;10.32;2.35;;;20.50;99.90;;;;;;1243460;23;20821;-94
2021/06/21 07:53:35;;;;;;;6.40;2.05;;;22.90;99.90;;;;;;1563846;23;20171;-91
2021/06/21 08:07:51;;;;;;;8.50;2.47;;;23.60;99.90;;;;;;2043958;23;21433;-94
2021/06/21 08:18:47;;;;;;;11.70;2.28;;;23.60;99.90;;;;;;3562844;40;20026;-88
2021/06/21 08:23:58;;;;;;;15.45;2.67;;;23.50;99.90;;;;;;1199955;23;20182;-91
2021/06/21 08:26:51;;;;;;;10.80;2.95;;;23.70;99.90;;;;;;1254157;23;21418;-92
2021/06/21 08:32:13;;;;;;;11.13;2.58;;;23.80;99.90;;;;;;3554647;40;20023;-86
2021/06/21 08:55:03;;;;;;;10.77;2.97;;;24.50;99.90;;;;;;1235159;23;21519;-92
2021/06/21 09:00:23;;;;;;;14.57;3.42;;;24.30;99.90;;;;;;3544590;40;20020;-85
2021/06/21 09:15:04;;;;;;;11.70;2.95;;;24.90;99.90;;;;;;1277227;23;20180;-86
2021/06/21 09:20:38;;;;;;;12.00;2.60;;;24.70;99.90;;;;;;1429869;23;20963;-89
2021/06/21 09:23:14;;;;;;;10.70;3.25;;;24.70;99.90;;;;;;3759610;23;20070;-90
2021/06/21 09:25:47;;;;;;;8.50;2.35;;;24.80;99.90;;;;;;3543584;40;20046;-86
2021/06/21 09:31:18;;;;;;;10.18;3.13;;;25.00;99.90;;;;;;3549443;40;20035;-88
2021/06/21 09:33:50;;;;;;;12.13;2.78;;;25.30;99.90;;;;;;3528803;40;20066;-86
2021/06/21 09:36:34;;;;;;;17.05;3.13;;;25.60;99.90;;;;;;3534413;40;20090;-85
2021/06/21 09:39:21;;;;;;;7.47;2.40;;;25.60;99.90;;;;;;3534001;40;20098;-88
2021/06/21 09:47:28;;;;;;;13.85;2.60;;;25.30;99.90;;;;;;829247;23;20293;-89
2021/06/21 09:53:11;;;;;;;10.65;2.33;;;25.80;99.90;;;;;;3684523;23;20035;-87
2021/06/21 09:59:20;;;;;;;15.55;2.92;;;25.70;99.50;;;;;;1201148;23;20215;-88
2021/06/21 10:05:15;;;;;;;14.20;3.28;;;26.30;98.30;;;;;;3595820;23;20550;-86
2021/06/21 10:07:46;;;;;;;15.30;3.78;;;26.70;95.60;;;;;;3550775;40;20038;-88
2021/06/21 10:10:21;;;;;;;10.88;2.88;;;26.40;96.50;;;;;;3531026;40;20035;-86
2021/06/21 10:12:51;;;;;;;7.47;2.13;;;26.70;97.10;;;;;;3526624;40;20027;-85
2021/06/21 10:15:20;;;;;;;10.98;3.00;;;27.20;95.40;;;;;;3527973;40;20071;-85
2021/06/21 10:17:47;;;;;;;16.13;2.50;;;27.00;94.60;;;;;;3529457;40;20074;-85
2021/06/21 10:20:16;;;;;;;5.57;2.37;;;26.50;94.90;;;;;;3545708;40;20087;-84
2021/06/21 10:22:44;;;;;;;13.10;2.70;;;26.40;96.40;;;;;;3529650;40;20423;-85
2021/06/21 10:25:15;;;;;;;14.60;2.58;;;26.70;96.30;;;;;;3530178;40;20093;-89
2021/06/21 10:27:45;;;;;;;9.43;2.40;;;27.70;94.00;;;;;;3538968;40;20087;-86
2021/06/21 10:30:19;;;;;;;13.48;2.28;;;27.90;92.80;;;;;;3545454;40;20062;-83
2021/06/21 10:32:53;;;;;;;13.10;2.83;;;28.40;89.70;;;;;;3545824;40;20067;-87
2021/06/21 10:35:29;;;;;;;8.52;2.20;;;28.50;90.20;;;;;;3539663;40;20054;-86
2021/06/21 10:38:03;;;;;;;9.25;2.38;;;28.20;89.70;;;;;;3532297;40;20083;-85
2021/06/21 10:40:54;;;;;;;11.27;2.30;;;28.70;87.20;;;;;;3530256;40;20067;-85
2021/06/21 10:43:48;;;;;;;9.80;2.53;;;29.20;82.00;;;;;;3534877;40;20373;-86
2021/06/21 10:46:29;;;;;;;12.88;2.40;;;29.90;79.30;;;;;;3536619;40;20090;-85
2021/06/21 10:49:34;;;;;;;13.32;2.38;;;30.10;76.40;;;;;;3535367;40;20414;-84
2021/06/21 10:52:23;;;;;;;9.77;2.10;;;31.30;73.90;;;;;;3525668;40;20078;-86
2021/06/21 10:54:52;;;;;;;10.52;2.47;;;31.40;69.60;;;;;;3565618;23;20071;-85
2021/06/21 10:57:23;;;;;;;8.85;2.05;;;30.40;67.80;;;;;;3515297;40;20080;-85
2021/06/21 11:00:14;;;;;;;9.77;2.80;;;30.00;70.20;;;;;;3527346;40;20284;-84
2021/06/21 11:03:15;;;;;;;11.48;2.05;;;30.50;68.00;;;;;;3638831;23;20067;-88
2021/06/21 11:05:46;;;;;;;14.05;2.17;;;30.40;68.80;;;;;;3530951;40;20067;-85
2021/06/21 11:08:16;;;;;;;13.63;2.30;;;30.90;67.10;;;;;;3532250;40;20070;-84
2021/06/21 11:10:46;;;;;;;12.13;1.95;;;31.40;66.70;;;;;;3540152;40;20066;-85
2021/06/21 11:13:43;;;;;;;8.15;2.03;;;31.80;64.90;;;;;;3553734;40;20134;-83
2021/06/21 11:16:24;;;;;;;6.68;1.52;;;32.20;60.80;;;;;;3543322;40;20074;-83
2021/06/21 11:19:36;;;;;;;6.22;1.67;;;31.00;60.70;;;;;;3515970;40;20094;-84
2021/06/21 11:22:10;;;;;;;9.75;2.22;;;30.50;63.60;;;;;;3532207;40;20070;-84
2021/06/21 11:24:52;;;;;;;8.18;1.95;;;30.30;63.80;;;;;;3535882;40;20382;-85
2021/06/21 11:27:26;;;;;;;11.02;1.75;;;30.60;63.60;;;;;;3523272;40;20087;-83
2021/06/21 11:29:58;;;;;;;7.43;1.48;;;31.40;62.10;;;;;;3534675;40;20066;-90
2021/06/21 11:32:45;;;;;;;12.80;2.13;;;32.30;60.60;;;;;;3538990;40;20078;-82
2021/06/21 11:35:13;;;;;;;7.78;1.80;;;32.00;61.50;;;;;;3533657;40;20090;-83
2021/06/21 11:37:46;;;;;;;9.82;2.42;;;32.70;60.80;;;;;;3540551;40;20070;-84
2021/06/21 11:40:32;;;;;;;9.25;1.83;;;34.40;58.40;;;;;;3542884;40;20296;-81
2021/06/21 11:43:23;;;;;;;11.75;2.00;;;33.90;54.60;;;;;;3536039;40;20102;-83
2021/06/21 11:46:03;;;;;;;10.10;2.08;;;32.40;54.90;;;;;;3526340;40;20039;-83
2021/06/21 11:48:36;;;;;;;17.83;1.60;;;33.10;54.30;;;;;;3545551;40;20078;-85
2021/06/21 11:51:15;;;;;;;7.05;1.83;;;32.70;55.20;;;;;;3528785;40;20056;-86
2021/06/21 11:57:07;;;;;;;10.32;2.28;;;32.50;55.40;;;;;;3628876;23;20058;-87
2021/06/21 11:59:38;;;;;;;7.85;1.83;;;32.10;56.00;;;;;;3537724;40;20070;-84
2021/06/21 12:02:11;;;;;;;6.38;1.70;;;32.60;55.60;;;;;;3537410;40;20074;-83
2021/06/21 12:04:43;;;;;;;8.27;1.85;;;32.50;56.90;;;;;;3534487;40;20120;-84
2021/06/21 12:07:29;;;;;;;4.53;1.65;;;33.20;55.70;;;;;;3543539;40;20304;-83
2021/06/21 12:10:01;;;;;;;6.38;1.70;;;33.30;55.10;;;;;;3532781;40;20067;-84
2021/06/21 12:12:33;;;;;;;13.20;2.05;;;33.70;54.40;;;;;;3535349;40;20110;-83
2021/06/21 12:15:07;;;;;;;8.45;1.83;;;32.50;56.90;;;;;;3534664;40;20074;-83
2021/06/21 12:17:37;;;;;;;7.45;1.98;;;32.80;56.00;;;;;;3528140;40;20066;-84
2021/06/21 12:20:14;;;;;;;9.38;2.50;;;33.30;56.30;;;;;;3533776;40;20086;-89
2021/06/21 12:23:01;;;;;;;9.80;2.40;;;34.10;54.70;;;;;;3539180;40;20070;-85
2021/06/21 12:25:33;;;;;;;6.88;1.67;;;34.70;52.20;;;;;;3540187;40;20063;-84
2021/06/21 12:28:14;;;;;;;8.23;1.73;;;34.60;51.10;;;;;;3529081;40;20074;-84
2021/06/21 12:30:47;;;;;;;10.00;1.83;;;33.00;52.60;;;;;;3535122;40;20086;-84
2021/06/21 12:33:37;;;;;;;11.23;1.60;;;32.40;54.20;;;;;;3535119;40;20086;-85
2021/06/21 12:36:13;;;;;;;4.75;1.50;;;33.10;53.10;;;;;;3525684;40;20291;-84
2021/06/21 12:38:49;;;;;;;5.82;1.77;;;32.20;55.20;;;;;;3535847;40;20437;-87
2021/06/21 12:41:23;;;;;;;5.13;1.60;;;32.20;55.30;;;;;;3531055;40;20103;-85
2021/06/21 12:44:10;;;;;;;7.88;2.03;;;33.30;53.50;;;;;;3529873;40;20205;-83
2021/06/21 12:46:43;;;;;;;8.20;2.08;;;33.50;53.20;;;;;;3534200;40;20091;-86
2021/06/21 12:49:14;;;;;;;11.20;2.15;;;33.20;53.20;;;;;;3530709;40;20070;-86
2021/06/21 12:51:46;;;;;;;9.20;2.42;;;33.10;54.20;;;;;;3533890;40;20078;-86
2021/06/21 12:54:21;;;;;;;9.02;2.00;;;33.00;53.80;;;;;;3531662;40;20074;-84
2021/06/21 12:56:56;;;;;;;5.90;1.50;;;32.70;55.40;;;;;;3533598;40;20114;-82
2021/06/21 12:59:28;;;;;;;11.55;1.67;;;33.80;53.70;;;;;;3532166;40;20099;-83
2021/06/21 13:01:57;;;;;;;5.82;1.73;;;35.30;52.00;;;;;;3509758;40;20105;-83
2021/06/21 13:04:27;;;;;;;9.50;1.95;;;36.90;49.50;;;;;;3518422;40;20082;-84
2021/06/21 13:07:00;;;;;;;6.75;1.90;;;36.90;48.60;;;;;;3534178;40;20102;-87
2021/06/21 13:09:30;;;;;;;10.95;2.60;;;37.40;48.10;;;;;;3519007;40;20098;-84
2021/06/21 13:12:04;;;;;;;9.57;1.80;;;37.50;47.80;;;;;;3540659;40;20070;-84
2021/06/21 13:14:37;;;;;;;8.45;1.90;;;37.40;46.40;;;;;;3520745;40;20090;-85
2021/06/21 13:17:09;;;;;;;8.88;2.33;;;36.90;46.70;;;;;;3545414;40;20081;-85
2021/06/21 13:19:49;;;;;;;4.40;1.52;;;35.80;49.50;;;;;;3542171;40;20090;-83
2021/06/21 13:22:33;;;;;;;7.78;2.00;;;34.30;49.80;;;;;;3549157;40;20049;-85
2021/06/21 13:25:22;;;;;;;6.28;1.40;;;33.70;52.50;;;;;;3531115;40;20037;-85
2021/06/21 13:27:53;;;;;;;9.18;2.30;;;33.60;51.60;;;;;;3564834;40;20069;-85
2021/06/21 13:30:25;;;;;;;10.10;2.00;;;33.80;52.30;;;;;;3555091;40;20057;-83
2021/06/21 13:32:55;;;;;;;4.68;1.83;;;33.40;52.10;;;;;;3545818;40;20085;-84
2021/06/21 13:35:29;;;;;;;7.38;2.20;;;34.10;51.00;;;;;;3540160;40;20299;-82
2021/06/21 13:37:59;;;;;;;9.82;1.55;;;35.00;49.60;;;;;;3532606;40;20066;-86
2021/06/21 13:40:32;;;;;;;5.85;1.50;;;34.80;49.20;;;;;;3547071;40;20078;-84
2021/06/21 13:43:02;;;;;;;7.18;2.13;;;34.30;50.50;;;;;;3540414;40;20070;-86
2021/06/21 13:45:32;;;;;;;7.63;1.92;;;35.90;48.60;;;;;;3537776;40;20067;-84
2021/06/21 13:48:06;;;;;;;7.07;1.40;;;36.60;46.90;;;;;;3533725;40;20081;-85
2021/06/21 13:50:37;;;;;;;7.50;1.67;;;37.50;46.10;;;;;;3554987;40;20066;-85
2021/06/21 13:53:23;;;;;;;5.97;1.58;;;36.40;46.70;;;;;;3543743;40;20090;-85
2021/06/21 13:55:54;;;;;;;6.78;1.23;;;34.90;48.10;;;;;;3539125;40;20093;-85
2021/06/21 13:58:35;;;;;;;5.65;1.27;;;34.20;49.30;;;;;;3543401;40;20078;-86
2021/06/21 14:01:15;;;;;;;6.07;1.75;;;35.10;48.60;;;;;;3539705;40;20039;-87
2021/06/21 14:03:49;;;;;;;5.57;1.50;;;35.90;47.30;;;;;;3523814;40;20083;-86
2021/06/21 14:06:22;;;;;;;9.57;1.25;;;35.50;46.30;;;;;;3539350;40;20067;-84
2021/06/21 14:08:53;;;;;;;6.35;1.30;;;34.70;47.90;;;;;;3518906;40;20450;-84
2021/06/21 14:11:22;;;;;;;5.97;1.60;;;33.60;49.40;;;;;;3521129;40;20144;-87
2021/06/21 14:13:52;;;;;;;5.80;1.65;;;34.60;49.00;;;;;;3521600;40;20336;-86
2021/06/21 14:16:24;;;;;;;4.18;1.38;;;36.30;47.10;;;;;;3522344;40;20040;-87
2021/06/21 14:18:53;;;;;;;5.95;1.33;;;37.50;45.10;;;;;;3505629;40;20075;-87
2021/06/21 14:22:13;;;;;;;5.93;1.08;;;37.40;44.20;;;;;;3523469;40;20067;-87
2021/06/21 14:31:53;;;;;;;3.72;1.00;;;34.30;47.40;;;;;;3536714;40;20079;-86
2021/06/21 14:34:27;;;;;;;9.52;1.77;;;33.00;49.00;;;;;;3516479;40;20028;-84
2021/06/21 14:36:58;;;;;;;4.82;1.40;;;32.70;50.30;;;;;;3516874;40;20054;-85
2021/06/21 14:39:26;;;;;;;7.80;1.55;;;33.60;50.10;;;;;;3522049;40;20047;-84
2021/06/21 14:41:57;;;;;;;4.70;1.67;;;33.60;49.80;;;;;;3532152;40;20086;-85
2021/06/21 14:44:27;;;;;;;9.38;1.73;;;35.30;48.10;;;;;;3505899;40;20075;-87
2021/06/21 14:46:59;;;;;;;;;;;36.50;45.80;;;;;;3512282;40;20160;-85
2021/06/21 14:49:28;;;;;;;6.88;1.33;;;36.30;45.90;;;;;;3525841;40;20188;-84
2021/06/21 14:51:56;;;;;;;4.40;1.55;;;37.10;45.10;;;;;;3524585;40;20071;-84
2021/06/21 14:54:24;;;;;;;7.05;1.42;;;37.90;44.30;;;;;;3524928;40;20083;-85
2021/06/21 14:56:53;;;;;;;4.63;1.40;;;36.10;45.30;;;;;;3521995;40;20403;-84
2021/06/21 14:59:21;;;;;;;3.22;1.30;;;34.80;47.60;;;;;;3506072;40;20099;-85
2021/06/21 15:01:49;;;;;;;;;;;34.80;47.90;;;;;;3521080;40;20071;-85
2021/06/21 15:04:19;;;;;;;4.95;1.20;;;34.60;47.90;;;;;;3522215;40;19978;-84
2021/06/21 15:06:47;;;;;;;5.88;1.65;;;33.70;49.50;;;;;;3517902;40;20414;-89
2021/06/21 15:09:21;;;;;;;6.10;1.35;;;35.10;48.60;;;;;;3507841;40;20072;-88
2021/06/21 15:11:49;;;;;;;2.55;1.20;;;35.70;47.10;;;;;;3514830;40;20087;-84
2021/06/21 15:14:17;;;;;;;;;;;35.80;46.70;;;;;;3507082;40;20076;-85
2021/06/21 15:16:48;;;;;;;4.78;1.70;;;37.00;45.50;;;;;;3517014;40;20017;-85
2021/06/21 15:19:25;;;;;;;4.80;1.25;;;37.80;44.60;;;;;;3515671;40;20079;-83
2021/06/21 15:21:57;;;;;;;6.90;1.65;;;36.30;45.30;;;;;;3497698;41;20076;-87
2021/06/21 15:24:25;;;;;;;4.03;1.52;;;35.30;46.60;;;;;;3511813;40;20096;-84
2021/06/21 15:26:56;;;;;;;7.78;1.50;;;34.00;48.00;;;;;;3487905;41;20095;-85
2021/06/21 15:29:25;;;;;;;5.30;1.45;;;33.20;50.00;;;;;;3497129;41;20080;-84
2021/06/21 15:31:57;;;;;;;11.93;2.33;;;33.00;50.70;;;;;;3506531;41;20151;-84
2021/06/21 15:34:27;;;;;;;10.70;1.50;;;33.90;49.50;;;;;;3502522;41;20068;-85
2021/06/21 15:36:57;;;;;;;9.77;1.52;;;35.70;47.70;;;;;;3501765;41;20096;-85
2021/06/21 15:39:25;;;;;;;4.28;1.20;;;36.50;46.20;;;;;;3484960;41;20076;-84
2021/06/21 15:44:44;;;;;;;6.30;1.27;;;35.20;48.00;;;;;;3498279;41;20133;-87
2021/06/21 15:47:13;;;;;;;9.05;1.52;;;36.50;46.60;;;;;;3478979;41;20041;-85
2021/06/21 16:09:41;;;;;;;3.55;1.52;;;36.10;45.00;;;;;;3558787;40;20362;-84
2021/06/21 16:12:11;;;;;;;6.55;1.50;;;36.30;45.00;;;;;;3551686;40;20034;-87
2021/06/21 16:14:39;;;;;;;6.72;1.50;;;37.60;44.80;;;;;;3542076;40;20038;-86
2021/06/21 16:17:08;;;;;;;4.90;1.27;;;38.00;42.60;;;;;;3538835;40;20074;-84
2021/06/21 16:19:38;;;;;;;4.97;1.27;;;38.40;43.00;;;;;;3528555;40;20083;-84
2021/06/21 16:22:06;;;;;;;4.43;1.60;;;38.30;42.10;;;;;;3545799;40;20090;-85
2021/06/21 16:24:37;;;;;;;4.35;1.40;;;38.30;41.90;;;;;;3538974;40;20069;-86
2021/06/21 16:27:11;;;;;;;6.45;1.45;;;39.10;41.50;;;;;;3538527;40;20099;-85
2021/06/21 16:29:40;;;;;;;4.82;0.90;;;38.90;40.90;;;;;;3536133;40;20094;-85
2021/06/21 16:32:13;;;;;;;5.78;1.33;;;38.60;40.60;;;;;;3543344;40;20071;-86
2021/06/21 16:34:41;;;;;;;4.55;1.35;;;38.50;41.10;;;;;;3543685;40;20386;-85
2021/06/21 16:37:14;;;;;;;5.47;1.42;;;38.10;40.80;;;;;;3544420;40;20090;-84
2021/06/21 16:39:42;;;;;;;8.63;1.60;;;37.00;42.30;;;;;;3541900;40;20116;-86
2021/06/21 16:42:13;;;;;;;7.80;1.42;;;36.30;43.60;;;;;;3534887;40;20074;-87
2021/06/21 16:44:45;;;;;;;4.53;1.88;;;36.40;42.40;;;;;;3536450;40;20070;-85
2021/06/21 16:47:18;;;;;;;4.50;1.23;;;36.80;42.70;;;;;;3544625;40;20085;-87
2021/06/21 16:49:47;;;;;;;4.20;1.27;;;37.60;42.10;;;;;;3543754;40;20086;-85
2021/06/21 16:52:18;;;;;;;7.20;1.15;;;38.50;40.80;;;;;;3538898;40;20157;-83
2021/06/21 16:54:46;;;;;;;4.90;1.40;;;37.80;41.00;;;;;;3540728;40;20071;-85
2021/06/21 16:57:17;;;;;;;;;;;37.40;41.20;;;;;;3542975;40;20031;-85
2021/06/21 16:59:45;;;;;;;6.22;1.50;;;35.60;43.40;;;;;;3544910;40;19957;-84
2021/06/21 17:02:13;;;;;;;7.75;1.48;;;36.20;43.30;;;;;;3552894;40;20039;-87
2021/06/21 17:05:13;;;;;;;4.95;1.40;;;36.10;43.70;;;;;;3545831;40;20034;-87
2021/06/21 17:11:27;;;;;;;6.60;1.10;;;37.90;41.70;;;;;;3542184;40;20059;-86
2021/06/21 17:13:57;;;;;;;7.60;1.10;;;37.10;42.30;;;;;;3549289;40;20067;-85
2021/06/21 17:16:25;;;;;;;6.40;2.30;;;36.10;43.70;;;;;;3532094;40;20093;-84
2021/06/21 17:18:52;;;;;;;;;;;35.00;45.00;;;;;;3545280;40;20074;-83
2021/06/21 17:21:26;;;;;;;6.20;1.77;;;34.10;45.70;;;;;;3545018;40;19978;-84
2021/06/21 17:24:04;;;;;;;5.97;1.52;;;33.10;46.60;;;;;;3546466;40;20057;-87
2021/06/21 17:26:37;;;;;;;4.97;1.20;;;32.30;48.30;;;;;;3547486;40;20451;-87
2021/06/21 17:56:43;;;;;;;8.07;1.38;;;29.40;54.00;;;;;;3551317;40;20035;-84
2021/06/21 17:59:36;;;;;;;4.13;1.10;;;29.30;54.50;;;;;;3748793;23;20085;-89
2021/06/21 18:14:09;;;;;;;;;;;;;;;;;;;;;
2021/06/21 18:25:40;;;;;;;7.43;1.40;;;29.10;57.50;;;;;;1206349;23;20273;-93
2021/06/21 18:44:43;;;;;;;3.30;1.60;;;28.40;59.30;;;;;;3564236;40;20057;-87
2021/06/21 18:47:17;;;;;;;4.03;1.60;;;28.20;59.80;;;;;;3537905;40;20039;-87
2021/06/21 18:52:57;;;;;;;4.90;1.60;;;27.90;60.40;;;;;;3557615;40;20039;-87
2021/06/21 18:55:28;;;;;;;3.95;1.40;;;27.90;60.40;;;;;;3522278;40;20538;-87
2021/06/21 18:58:03;;;;;;;5.15;2.03;;;27.80;60.50;;;;;;3530080;40;20296;-87
2021/06/21 19:00:47;;;;;;;6.30;1.90;;;27.70;60.60;;;;;;3622040;23;20798;-85
2021/06/21 19:03:24;;;;;;;5.93;1.70;;;27.70;60.70;;;;;;3658688;23;20070;-86
2021/06/21 19:06:25;;;;;;;6.55;1.48;;;27.70;61.10;;;;;;2794966;23;20166;-89
2021/06/21 19:08:57;;;;;;;7.88;1.60;;;27.60;61.50;;;;;;1386786;23;20240;-88
2021/06/21 19:11:27;;;;;;;4.03;1.50;;;27.60;61.60;;;;;;3560998;40;20030;-89
2021/06/21 19:13:58;;;;;;;6.53;1.65;;;27.60;61.40;;;;;;3544680;40;20065;-86
2021/06/21 19:16:35;;;;;;;5.68;2.15;;;27.60;61.40;;;;;;3561779;40;20046;-86
2021/06/21 19:19:04;;;;;;;5.13;2.20;;;27.60;61.80;;;;;;3548136;40;20053;-86
2021/06/21 19:21:35;;;;;;;7.47;1.60;;;27.50;62.30;;;;;;3552976;40;20062;-90
2021/06/21 19:24:03;;;;;;;5.30;1.75;;;27.50;62.50;;;;;;3553147;40;20286;-87
2021/06/21 19:26:31;;;;;;;7.45;1.45;;;27.40;62.70;;;;;;3555119;40;20067;-85
2021/06/21 19:29:03;;;;;;;5.00;2.20;;;27.30;62.50;;;;;;3538006;40;20047;-87
2021/06/21 19:31:34;;;;;;;9.85;2.60;;;27.10;62.70;;;;;;3552204;40;20034;-85
2021/06/21 19:36:48;;;;;;;6.97;1.70;;;27.00;63.40;;;;;;3551587;40;20059;-86
2021/06/21 19:39:18;;;;;;;5.00;1.48;;;26.80;63.60;;;;;;3553866;40;20042;-87
2021/06/21 19:41:47;;;;;;;3.85;1.50;;;26.60;64.20;;;;;;3553094;40;20035;-87
2021/06/21 19:44:15;;;;;;;3.67;1.50;;;26.50;64.30;;;;;;3539506;40;20039;-87
2021/06/21 19:49:39;;;;;;;3.97;1.45;;;26.30;64.80;;;;;;3554651;23;21359;-83
2021/06/21 19:52:09;;;;;;;6.15;2.20;;;26.20;65.10;;;;;;3551943;40;20038;-88
2021/06/21 19:54:38;;;;;;;7.60;2.05;;;26.10;65.40;;;;;;3551347;40;20338;-85
2021/06/21 19:57:07;;;;;;;5.55;1.58;;;26.10;65.50;;;;;;3542374;40;20050;-86
2021/06/21 19:59:38;;;;;;;6.53;1.98;;;26.00;66.00;;;;;;3521085;40;20063;-85
2021/06/21 20:02:08;;;;;;;;;;;26.00;66.30;;;;;;3521183;40;20098;-86
2021/06/21 20:04:36;;;;;;;6.90;2.20;;;25.90;66.50;;;;;;3526507;40;19983;-85
2021/06/21 20:07:12;;;;;;;6.03;2.15;;;26.00;66.70;;;;;;3528138;40;20083;-86
2021/06/21 20:09:41;;;;;;;6.25;2.08;;;26.00;66.60;;;;;;3531917;40;20031;-88
2021/06/21 20:12:10;;;;;;;4.70;1.90;;;26.00;66.00;;;;;;3525410;40;20123;-90
2021/06/21 20:14:39;;;;;;;;;;;25.90;66.50;;;;;;3532441;40;20035;-88
2021/06/21 20:17:07;;;;;;;5.57;1.63;;;25.80;67.20;;;;;;3523638;40;19945;-87
2021/06/21 20:19:35;;;;;;;11.40;2.25;;;25.90;67.10;;;;;;3533096;40;20063;-86
2021/06/21 20:22:04;;;;;;;5.15;1.77;;;25.70;67.80;;;;;;3533333;40;20058;-87
2021/06/21 20:24:34;;;;;;;5.45;1.50;;;25.60;68.50;;;;;;3532809;40;20043;-87
2021/06/21 20:27:05;;;;;;;7.20;2.08;;;25.50;68.70;;;;;;3540443;40;20059;-84
2021/06/21 20:29:33;;;;;;;8.32;2.25;;;25.40;69.90;;;;;;3530055;40;20067;-86
2021/06/21 20:32:02;;;;;;;10.70;3.00;;;25.40;69.60;;;;;;3547989;40;20042;-87
2021/06/21 20:34:41;;;;;;;7.57;2.10;;;25.40;70.00;;;;;;3545827;40;20042;-85
2021/06/21 20:37:10;;;;;;;3.45;1.70;;;25.30;70.30;;;;;;3549867;40;20034;-83
2021/06/21 20:39:39;;;;;;;;;;;25.30;70.80;;;;;;3543624;40;20035;-88
2021/06/21 20:42:08;;;;;;;4.93;1.85;;;25.10;71.20;;;;;;3544895;40;19945;-87
2021/06/21 20:44:36;;;;;;;4.78;1.83;;;25.10;71.60;;;;;;3560188;40;20037;-86
2021/06/21 20:47:04;;;;;;;4.22;1.67;;;25.10;72.10;;;;;;3550639;40;20059;-86
2021/06/21 20:49:31;;;;;;;4.13;1.77;;;25.10;72.20;;;;;;3587029;23;20051;-84
2021/06/21 20:54:57;;;;;;;5.00;1.70;;;25.00;73.00;;;;;;3548726;40;20070;-88
2021/06/21 20:57:25;;;;;;;4.45;1.80;;;25.00;73.50;;;;;;3534226;40;20042;-86
2021/06/21 20:59:54;;;;;;;5.10;2.00;;;24.80;74.60;;;;;;3548987;40;20031;-88
2021/06/21 21:02:24;;;;;;;4.15;1.98;;;24.80;74.60;;;;;;3522867;40;20038;-86
2021/06/21 21:04:52;;;;;;;5.90;1.80;;;24.80;75.00;;;;;;3513045;40;20076;-85
2021/06/21 21:07:22;;;;;;;9.18;1.90;;;24.80;75.30;;;;;;3528521;40;20120;-83
2021/06/21 21:09:51;;;;;;;4.38;1.60;;;25.00;74.20;;;;;;3523984;40;20082;-84
2021/06/21 21:12:21;;;;;;;3.92;1.55;;;24.90;74.80;;;;;;3529572;40;20055;-85
2021/06/21 21:14:49;;;;;;;7.32;2.13;;;24.80;75.40;;;;;;3536311;40;20090;-86
2021/06/21 21:17:17;;;;;;;4.10;1.95;;;24.90;75.60;;;;;;3532061;40;20414;-85
2021/06/21 21:19:45;;;;;;;3.47;1.50;;;24.70;76.20;;;;;;3538402;40;20062;-85
2021/06/21 21:22:15;;;;;;;6.18;2.50;;;24.70;76.30;;;;;;3533491;40;20031;-86
2021/06/21 21:24:43;;;;;;;6.55;3.85;;;24.70;77.40;;;;;;3533267;40;20337;-88
2021/06/21 21:27:11;;;;;;;8.30;5.13;;;24.80;80.30;;;;;;3532519;40;20067;-85
2021/06/21 21:29:41;;;;;;;11.13;6.68;;;24.80;83.10;;;;;;3530567;40;20042;-86
2021/06/21 21:35:05;;;;;;;10.77;6.90;;;24.40;91.00;;;;;;3612103;23;20039;-86
2021/06/21 21:37:38;;;;;;;11.40;7.13;;;24.10;93.80;;;;;;3572629;23;20062;-86
2021/06/21 21:40:09;;;;;;;13.27;7.35;;;23.80;96.30;;;;;;3515158;41;20028;-86
2021/06/21 21:53:57;;;;;;;14.77;8.23;;;23.00;99.90;;;;;;3727971;23;20046;-87
2021/06/21 21:56:50;;;;;;;11.35;8.43;;;23.00;99.90;;;;;;3724039;23;20058;-88
2021/06/21 21:59:19;;;;;;;12.95;8.68;;;22.90;99.90;;;;;;3754554;23;20862;-89
2021/06/21 22:10:55;;;;;;;10.10;6.38;;;22.60;99.90;;;;;;3725334;23;20569;-87
2021/06/21 22:16:31;;;;;;;9.90;6.80;;;22.40;99.90;;;;;;3699798;23;20340;31
2021/06/21 22:30:53;;;;;;;8.73;5.28;;;21.90;99.90;;;;;;3784110;23;20044;-90
2021/06/21 22:36:13;;;;;;;9.13;4.40;;;21.80;99.90;;;;;;3799324;23;21115;-88
2021/06/21 22:38:42;;;;;;;8.95;4.15;;;21.70;99.90;;;;;;3660359;23;20777;-88
2021/06/21 22:41:34;;;;;;;6.57;4.00;;;21.70;99.90;;;;;;1203387;23;21435;-88
